LEAM/LEI METAR and TAF weather

Enter ICAO airport designator
Station Type Date Time Source
LEAM METAR 2019/08/18 09:00 UTC NOAA

LEAM 180900Z 19005KT 160V240 9999 FEW010 28/22 Q1013


Station Type Date Time Source
LEAM Decoded METAR 2019/08/18 09:00 UTC NOAA

Station name not available
Aug 18, 2019 - 05:00 AM EDT / 2019.08.18 0900 UTC
Wind: from the S (190 degrees) at 6 MPH (5 KT) (direction variable):0
Visibility: greater than 7 mile(s):0
Sky conditions: mostly clear
Temperature: 82 F (28 C)
Dew Point: 71 F (22 C)
Relative Humidity: 69%
Pressure (altimeter): 29.91 in. Hg (1013 hPa)
ob: LEAM 180900Z 19005KT 160V240 9999 FEW010 28/22 Q1013
cycle: 9

Station Type Date Time Source
LEAM TAF 2019/08/18 09:30 UTC NOAA

TAF LEAM 180800Z 1809/1909 22009KT CAVOK TX27/1814Z TN23/1903Z PROB30
TEMPO 1809/1811 3000 BR BKN010

Example: see airport list